JA9470 RJTI-RJTI

Flight info

Callsign JA9470
Flight time 0h 8m
Altitude 1500
Route HAKOZAKI KOMATSUGAWA
Aircraft B06/L-SDGLOV/S

Departure

Time 2026-04-19 14:44
Airport Tokyo Heliport (RJTI)

Arrival

Time 2026-04-19 14:52
Airport Tokyo Heliport (RJTI)
Time Latitude Longitude Altitude Speed Heading
2026-04-19 14:35 35.63580 139.83767 21 ft 0 kts 183°
2026-04-19 14:41 35.63567 139.83772 28 ft 8 kts 116°
2026-04-19 14:41 35.63558 139.83864 33 ft 2 kts 93°
2026-04-19 14:41 35.63557 139.83870 37 ft 0 kts 92°
2026-04-19 14:41 35.63557 139.83867 37 ft 1 kts 92°
2026-04-19 14:42 35.63572 139.83948 74 ft 18 kts 26°
2026-04-19 14:42 35.63805 139.83975 84 ft 61 kts 14°
2026-04-19 14:42 35.64200 139.83742 360 ft 78 kts 296°
2026-04-19 14:42 35.64241 139.83037 511 ft 82 kts 266°
2026-04-19 14:43 35.64147 139.82303 522 ft 88 kts 255°
2026-04-19 14:43 35.63974 139.81595 532 ft 86 kts 250°
2026-04-19 14:43 35.63800 139.80854 449 ft 93 kts 263°
2026-04-19 14:43 35.63887 139.80080 542 ft 93 kts 293°
2026-04-19 14:44 35.64094 139.79353 682 ft 89 kts 294°
2026-04-19 14:44 35.64524 139.78867 800 ft 85 kts 348°
2026-04-19 14:44 35.65123 139.78741 917 ft 92 kts 352°
2026-04-19 14:44 35.65786 139.78628 993 ft 93 kts
2026-04-19 14:45 35.66439 139.78578 1034 ft 95 kts 359°
2026-04-19 14:45 35.67092 139.78512 1059 ft 93 kts 359°
2026-04-19 14:45 35.67726 139.78496 1069 ft 93 kts
2026-04-19 14:45 35.68347 139.78664 1093 ft 89 kts 26°
2026-04-19 14:46 35.68879 139.79048 1140 ft 87 kts 42°
2026-04-19 14:46 35.69248 139.79511 1399 ft 67 kts 54°
2026-04-19 14:46 35.69588 139.80022 1460 ft 76 kts 57°
2026-04-19 14:46 35.69905 139.80464 1695 ft 69 kts 50°
2026-04-19 14:47 35.70274 139.80922 1595 ft 83 kts 50°
2026-04-19 14:47 35.70672 139.81476 1459 ft 89 kts 55°
2026-04-19 14:47 35.70874 139.82198 1344 ft 86 kts 86°
2026-04-19 14:47 35.70926 139.82909 1330 ft 83 kts 89°
2026-04-19 14:48 35.70965 139.83618 1295 ft 86 kts 87°
2026-04-19 14:48 35.71023 139.84391 1003 ft 95 kts 96°
2026-04-19 14:48 35.70744 139.85105 787 ft 95 kts 135°
2026-04-19 14:48 35.70179 139.85486 734 ft 93 kts 157°
2026-04-19 14:49 35.69527 139.85552 607 ft 97 kts 185°
2026-04-19 14:49 35.68901 139.85309 656 ft 92 kts 198°
2026-04-19 14:49 35.68308 139.84992 657 ft 92 kts 200°
2026-04-19 14:49 35.67695 139.84721 620 ft 95 kts 192°
2026-04-19 14:50 35.67036 139.84496 545 ft 97 kts 182°
2026-04-19 14:50 35.66376 139.84491 632 ft 92 kts 179°
2026-04-19 14:50 35.65787 139.84457 793 ft 85 kts 182°
2026-04-19 14:50 35.65275 139.84375 1052 ft 66 kts 182°
2026-04-19 14:51 35.64718 139.84412 588 ft 98 kts 172°
2026-04-19 14:51 35.64051 139.84402 551 ft 91 kts 179°
2026-04-19 14:51 35.63458 139.84333 385 ft 78 kts 191°
2026-04-19 14:51 35.63328 139.83909 127 ft 53 kts
2026-04-19 14:52 35.63604 139.83946 51 ft 28 kts 334°
2026-04-19 14:52 35.63609 139.83836 30 ft 15 kts 211°
2026-04-19 14:52 35.63577 139.83772 27 ft 5 kts
2026-04-19 14:52 35.63586 139.83768 24 ft 0 kts
2026-04-19 14:54 35.63581 139.83788 36 ft 16 kts 99°
2026-04-19 14:54 35.63569 139.83940 46 ft 13 kts 16°
2026-04-19 14:54 35.63767 139.83962 54 ft 67 kts 12°
2026-04-19 14:55 35.64173 139.83776 297 ft 72 kts 303°
2026-04-19 14:55 35.64165 139.83166 494 ft 78 kts 266°
2026-04-19 14:55 35.64044 139.82435 543 ft 92 kts 257°
2026-04-19 14:55 35.63892 139.81637 592 ft 99 kts 258°
2026-04-19 14:56 35.63744 139.80749 554 ft 113 kts 265°
2026-04-19 14:56 35.63894 139.79807 579 ft 110 kts 301°
2026-04-19 14:56 35.64230 139.79022 731 ft 105 kts 304°
2026-04-19 14:56 35.64885 139.78730 793 ft 104 kts
2026-04-19 14:57 35.65587 139.78720 911 ft 101 kts 359°
2026-04-19 14:57 35.66312 139.78626 971 ft 105 kts 357°
2026-04-19 14:57 35.67034 139.78526 1013 ft 106 kts 359°
2026-04-19 14:57 35.67756 139.78503 1001 ft 105 kts
2026-04-19 14:58 35.68404 139.78831 1097 ft 94 kts 34°
2026-04-19 14:58 35.68954 139.79216 1220 ft 91 kts 33°
2026-04-19 14:58 35.69487 139.79600 1398 ft 89 kts 36°
2026-04-19 14:58 35.70008 139.80050 1402 ft 96 kts 48°
2026-04-19 14:59 35.70277 139.80756 1524 ft 87 kts 76°
2026-04-19 14:59 35.70464 139.81444 1568 ft 86 kts 71°
2026-04-19 14:59 35.70701 139.82143 1497 ft 91 kts 71°
2026-04-19 14:59 35.70933 139.82820 1349 ft 82 kts 68°
2026-04-19 15:00 35.71168 139.83469 1077 ft 86 kts 72°
2026-04-19 15:00 35.71228 139.84197 818 ft 85 kts 96°
2026-04-19 15:00 35.71036 139.84867 599 ft 84 kts 121°
2026-04-19 15:00 35.70595 139.85299 528 ft 83 kts 147°
2026-04-19 15:01 35.70028 139.85554 428 ft 89 kts 163°
2026-04-19 15:01 35.69392 139.85511 494 ft 96 kts 190°
2026-04-19 15:01 35.68973 139.85359 608 ft 92 kts 195°
2026-04-19 15:01 35.68351 139.85057 596 ft 100 kts 200°
2026-04-19 15:02 35.67680 139.84739 576 ft 105 kts 194°
2026-04-19 15:02 35.66959 139.84577 533 ft 107 kts 182°
2026-04-19 15:02 35.66031 139.84517 651 ft 96 kts 181°
2026-04-19 15:02 35.65588 139.84471 729 ft 91 kts 182°
2026-04-19 15:03 35.64909 139.84444 579 ft 102 kts 176°
2026-04-19 15:03 35.64232 139.84430 592 ft 94 kts 175°
2026-04-19 15:03 35.63598 139.84411 600 ft 85 kts 174°
2026-04-19 15:03 35.63197 139.84069 240 ft 64 kts 299°
2026-04-19 15:04 35.63468 139.83944 91 ft 40 kts
2026-04-19 15:04 35.63612 139.83943 53 ft 19 kts 334°
2026-04-19 15:04 35.63609 139.83833 30 ft 17 kts 188°
2026-04-19 15:04 35.63576 139.83771 33 ft 4 kts
2026-04-19 15:05 35.63588 139.83768 24 ft 0 kts